sensor_id;sensor_type;location;lat;lon;timestamp;P1;durP1;ratioP1;P2;durP2;ratioP2
6141;SDS011;71289;51.552;6.210;2023-07-13T00:00:19;9.80;;;2.67;;
6141;SDS011;71289;51.552;6.210;2023-07-13T00:02:44;6.57;;;3.10;;
6141;SDS011;71289;51.552;6.210;2023-07-13T00:05:10;3.10;;;2.50;;
6141;SDS011;71289;51.552;6.210;2023-07-13T00:07:36;7.40;;;2.80;;
6141;SDS011;71289;51.552;6.210;2023-07-13T00:10:03;6.67;;;3.10;;
6141;SDS011;71289;51.552;6.210;2023-07-13T00:12:38;7.23;;;2.83;;
6141;SDS011;71289;51.552;6.210;2023-07-13T00:15:05;7.83;;;2.20;;
6141;SDS011;71289;51.552;6.210;2023-07-13T00:17:57;3.67;;;2.43;;
6141;SDS011;71289;51.552;6.210;2023-07-13T00:20:25;6.10;;;2.80;;
6141;SDS011;71289;51.552;6.210;2023-07-13T00:22:52;8.23;;;2.40;;
6141;SDS011;71289;51.552;6.210;2023-07-13T00:25:18;11.27;;;2.50;;
6141;SDS011;71289;51.552;6.210;2023-07-13T00:27:46;2.90;;;1.93;;
6141;SDS011;71289;51.552;6.210;2023-07-13T00:30:13;8.77;;;3.23;;
6141;SDS011;71289;51.552;6.210;2023-07-13T00:32:39;10.53;;;3.13;;
6141;SDS011;71289;51.552;6.210;2023-07-13T00:35:05;9.17;;;3.77;;
6141;SDS011;71289;51.552;6.210;2023-07-13T00:37:32;7.10;;;2.47;;
6141;SDS011;71289;51.552;6.210;2023-07-13T00:39:58;15.63;;;2.97;;
6141;SDS011;71289;51.552;6.210;2023-07-13T00:42:24;10.63;;;2.80;;
6141;SDS011;71289;51.552;6.210;2023-07-13T00:45:06;15.17;;;2.93;;
6141;SDS011;71289;51.552;6.210;2023-07-13T00:47:38;4.50;;;2.13;;
6141;SDS011;71289;51.552;6.210;2023-07-13T00:50:05;7.70;;;2.70;;
6141;SDS011;71289;51.552;6.210;2023-07-13T00:52:33;7.63;;;2.27;;
6141;SDS011;71289;51.552;6.210;2023-07-13T00:55:02;10.87;;;2.67;;
6141;SDS011;71289;51.552;6.210;2023-07-13T00:57:28;7.43;;;2.70;;
6141;SDS011;71289;51.552;6.210;2023-07-13T00:59:54;5.30;;;2.40;;
6141;SDS011;71289;51.552;6.210;2023-07-13T01:02:23;15.03;;;3.07;;
6141;SDS011;71289;51.552;6.210;2023-07-13T01:04:50;5.30;;;2.33;;
6141;SDS011;71289;51.552;6.210;2023-07-13T01:07:16;6.00;;;1.97;;
6141;SDS011;71289;51.552;6.210;2023-07-13T01:09:42;10.87;;;2.80;;
6141;SDS011;71289;51.552;6.210;2023-07-13T01:12:10;9.60;;;3.80;;
6141;SDS011;71289;51.552;6.210;2023-07-13T01:14:36;6.10;;;2.97;;
6141;SDS011;71289;51.552;6.210;2023-07-13T01:17:01;5.90;;;3.03;;
6141;SDS011;71289;51.552;6.210;2023-07-13T01:22:04;8.53;;;3.27;;
6141;SDS011;71289;51.552;6.210;2023-07-13T01:24:33;6.67;;;2.30;;
6141;SDS011;71289;51.552;6.210;2023-07-13T01:27:03;5.73;;;2.20;;
6141;SDS011;71289;51.552;6.210;2023-07-13T01:29:31;9.10;;;2.27;;
6141;SDS011;71289;51.552;6.210;2023-07-13T01:31:57;9.00;;;2.23;;
6141;SDS011;71289;51.552;6.210;2023-07-13T01:34:23;5.10;;;2.37;;
6141;SDS011;71289;51.552;6.210;2023-07-13T01:36:48;11.33;;;3.17;;
6141;SDS011;71289;51.552;6.210;2023-07-13T01:39:14;5.80;;;2.53;;
6141;SDS011;71289;51.552;6.210;2023-07-13T01:41:40;8.10;;;2.00;;
6141;SDS011;71289;51.552;6.210;2023-07-13T01:44:06;9.57;;;3.33;;
6141;SDS011;71289;51.552;6.210;2023-07-13T01:46:31;7.80;;;3.03;;
6141;SDS011;71289;51.552;6.210;2023-07-13T01:48:57;11.87;;;2.83;;
6141;SDS011;71289;51.552;6.210;2023-07-13T01:51:23;9.03;;;2.57;;
6141;SDS011;71289;51.552;6.210;2023-07-13T01:53:49;6.20;;;3.20;;
6141;SDS011;71289;51.552;6.210;2023-07-13T01:56:15;5.50;;;2.60;;
6141;SDS011;71289;51.552;6.210;2023-07-13T01:58:40;6.03;;;2.60;;
6141;SDS011;71289;51.552;6.210;2023-07-13T02:01:06;11.00;;;2.70;;
6141;SDS011;71289;51.552;6.210;2023-07-13T02:03:31;12.10;;;3.33;;
6141;SDS011;71289;51.552;6.210;2023-07-13T02:05:57;8.30;;;2.80;;
6141;SDS011;71289;51.552;6.210;2023-07-13T02:08:22;8.37;;;2.97;;
6141;SDS011;71289;51.552;6.210;2023-07-13T02:10:48;7.87;;;3.40;;
6141;SDS011;71289;51.552;6.210;2023-07-13T02:13:13;9.63;;;3.07;;
6141;SDS011;71289;51.552;6.210;2023-07-13T02:15:39;8.07;;;3.40;;
6141;SDS011;71289;51.552;6.210;2023-07-13T02:18:05;8.10;;;2.60;;
6141;SDS011;71289;51.552;6.210;2023-07-13T02:20:31;5.47;;;3.13;;
6141;SDS011;71289;51.552;6.210;2023-07-13T02:22:57;19.77;;;3.90;;
6141;SDS011;71289;51.552;6.210;2023-07-13T02:25:22;5.50;;;3.00;;
6141;SDS011;71289;51.552;6.210;2023-07-13T02:27:50;14.93;;;3.30;;
6141;SDS011;71289;51.552;6.210;2023-07-13T02:30:15;13.67;;;2.90;;
6141;SDS011;71289;51.552;6.210;2023-07-13T02:32:41;11.23;;;2.80;;
6141;SDS011;71289;51.552;6.210;2023-07-13T02:35:06;18.77;;;3.93;;
6141;SDS011;71289;51.552;6.210;2023-07-13T02:37:32;5.80;;;2.93;;
6141;SDS011;71289;51.552;6.210;2023-07-13T02:39:58;10.07;;;2.70;;
6141;SDS011;71289;51.552;6.210;2023-07-13T02:42:23;10.00;;;2.60;;
6141;SDS011;71289;51.552;6.210;2023-07-13T02:44:49;8.37;;;3.37;;
6141;SDS011;71289;51.552;6.210;2023-07-13T02:47:15;5.20;;;3.07;;
6141;SDS011;71289;51.552;6.210;2023-07-13T02:49:41;13.33;;;2.87;;
6141;SDS011;71289;51.552;6.210;2023-07-13T02:52:06;9.73;;;2.83;;
6141;SDS011;71289;51.552;6.210;2023-07-13T02:54:32;7.93;;;3.10;;
6141;SDS011;71289;51.552;6.210;2023-07-13T02:56:58;11.10;;;3.23;;
6141;SDS011;71289;51.552;6.210;2023-07-13T02:59:23;9.43;;;2.80;;
6141;SDS011;71289;51.552;6.210;2023-07-13T03:01:49;6.73;;;2.97;;
6141;SDS011;71289;51.552;6.210;2023-07-13T03:04:14;11.60;;;2.90;;
6141;SDS011;71289;51.552;6.210;2023-07-13T03:06:44;8.10;;;2.77;;
6141;SDS011;71289;51.552;6.210;2023-07-13T03:09:10;8.63;;;3.23;;
6141;SDS011;71289;51.552;6.210;2023-07-13T03:11:37;8.93;;;2.77;;
6141;SDS011;71289;51.552;6.210;2023-07-13T03:14:03;14.00;;;3.83;;
6141;SDS011;71289;51.552;6.210;2023-07-13T03:16:28;12.33;;;3.17;;
6141;SDS011;71289;51.552;6.210;2023-07-13T03:18:54;9.17;;;3.00;;
6141;SDS011;71289;51.552;6.210;2023-07-13T03:21:20;11.53;;;2.90;;
6141;SDS011;71289;51.552;6.210;2023-07-13T03:23:46;4.70;;;2.70;;
6141;SDS011;71289;51.552;6.210;2023-07-13T03:26:13;10.13;;;3.43;;
6141;SDS011;71289;51.552;6.210;2023-07-13T03:28:41;10.60;;;3.30;;
6141;SDS011;71289;51.552;6.210;2023-07-13T03:31:11;22.20;;;4.20;;
6141;SDS011;71289;51.552;6.210;2023-07-13T03:33:39;6.40;;;2.20;;
6141;SDS011;71289;51.552;6.210;2023-07-13T03:36:05;18.37;;;4.00;;
6141;SDS011;71289;51.552;6.210;2023-07-13T03:38:33;6.27;;;3.03;;
6141;SDS011;71289;51.552;6.210;2023-07-13T03:40:59;10.03;;;4.20;;
6141;SDS011;71289;51.552;6.210;2023-07-13T03:43:25;13.53;;;3.07;;
6141;SDS011;71289;51.552;6.210;2023-07-13T03:45:51;12.40;;;3.13;;
6141;SDS011;71289;51.552;6.210;2023-07-13T03:48:16;12.67;;;3.50;;
6141;SDS011;71289;51.552;6.210;2023-07-13T03:50:42;9.43;;;2.60;;
6141;SDS011;71289;51.552;6.210;2023-07-13T03:53:07;18.83;;;4.30;;
6141;SDS011;71289;51.552;6.210;2023-07-13T03:55:33;13.77;;;2.80;;
6141;SDS011;71289;51.552;6.210;2023-07-13T03:58:00;8.90;;;3.00;;
6141;SDS011;71289;51.552;6.210;2023-07-13T04:00:46;12.50;;;4.40;;
6141;SDS011;71289;51.552;6.210;2023-07-13T04:03:11;10.77;;;2.70;;
6141;SDS011;71289;51.552;6.210;2023-07-13T04:05:37;12.27;;;3.33;;
6141;SDS011;71289;51.552;6.210;2023-07-13T04:08:05;6.87;;;3.10;;
6141;SDS011;71289;51.552;6.210;2023-07-13T04:10:31;9.20;;;3.40;;
6141;SDS011;71289;51.552;6.210;2023-07-13T04:12:56;8.63;;;3.67;;
6141;SDS011;71289;51.552;6.210;2023-07-13T04:15:22;12.70;;;3.70;;
6141;SDS011;71289;51.552;6.210;2023-07-13T04:17:47;15.83;;;3.87;;
6141;SDS011;71289;51.552;6.210;2023-07-13T04:20:13;17.73;;;4.70;;
6141;SDS011;71289;51.552;6.210;2023-07-13T04:22:38;9.87;;;3.30;;
6141;SDS011;71289;51.552;6.210;2023-07-13T04:25:04;11.47;;;3.00;;
6141;SDS011;71289;51.552;6.210;2023-07-13T04:27:30;16.30;;;4.47;;
6141;SDS011;71289;51.552;6.210;2023-07-13T04:29:55;9.93;;;3.40;;
6141;SDS011;71289;51.552;6.210;2023-07-13T04:32:21;11.33;;;3.63;;
6141;SDS011;71289;51.552;6.210;2023-07-13T04:34:46;8.10;;;3.47;;
6141;SDS011;71289;51.552;6.210;2023-07-13T04:37:12;14.20;;;3.70;;
6141;SDS011;71289;51.552;6.210;2023-07-13T04:39:37;14.57;;;4.07;;
6141;SDS011;71289;51.552;6.210;2023-07-13T04:42:03;16.10;;;4.93;;
6141;SDS011;71289;51.552;6.210;2023-07-13T04:44:29;15.87;;;5.13;;
6141;SDS011;71289;51.552;6.210;2023-07-13T04:46:54;12.10;;;4.30;;
6141;SDS011;71289;51.552;6.210;2023-07-13T04:49:20;13.90;;;3.70;;
6141;SDS011;71289;51.552;6.210;2023-07-13T04:51:46;10.70;;;6.00;;
6141;SDS011;71289;51.552;6.210;2023-07-13T04:54:11;17.03;;;5.47;;
6141;SDS011;71289;51.552;6.210;2023-07-13T04:56:36;12.10;;;5.50;;
6141;SDS011;71289;51.552;6.210;2023-07-13T04:59:02;9.37;;;4.43;;
6141;SDS011;71289;51.552;6.210;2023-07-13T05:01:28;14.87;;;4.23;;
6141;SDS011;71289;51.552;6.210;2023-07-13T05:03:53;12.00;;;4.53;;
6141;SDS011;71289;51.552;6.210;2023-07-13T05:06:21;14.93;;;4.90;;
6141;SDS011;71289;51.552;6.210;2023-07-13T05:08:46;12.60;;;4.97;;
6141;SDS011;71289;51.552;6.210;2023-07-13T05:11:12;19.90;;;5.47;;
6141;SDS011;71289;51.552;6.210;2023-07-13T05:13:37;14.33;;;6.13;;
6141;SDS011;71289;51.552;6.210;2023-07-13T05:16:04;14.93;;;6.33;;
6141;SDS011;71289;51.552;6.210;2023-07-13T05:18:33;19.90;;;6.50;;
6141;SDS011;71289;51.552;6.210;2023-07-13T05:21:03;12.13;;;6.73;;
6141;SDS011;71289;51.552;6.210;2023-07-13T05:23:31;19.03;;;6.30;;
6141;SDS011;71289;51.552;6.210;2023-07-13T05:25:58;17.23;;;7.03;;
6141;SDS011;71289;51.552;6.210;2023-07-13T05:28:24;21.93;;;7.80;;
6141;SDS011;71289;51.552;6.210;2023-07-13T05:30:51;14.63;;;7.43;;
6141;SDS011;71289;51.552;6.210;2023-07-13T05:33:16;19.07;;;6.10;;
6141;SDS011;71289;51.552;6.210;2023-07-13T05:35:42;25.60;;;7.30;;
6141;SDS011;71289;51.552;6.210;2023-07-13T05:38:08;15.37;;;8.57;;
6141;SDS011;71289;51.552;6.210;2023-07-13T05:40:33;27.57;;;8.30;;
6141;SDS011;71289;51.552;6.210;2023-07-13T05:42:59;17.53;;;7.80;;
6141;SDS011;71289;51.552;6.210;2023-07-13T05:45:24;29.40;;;7.93;;
6141;SDS011;71289;51.552;6.210;2023-07-13T05:47:50;21.20;;;7.90;;
6141;SDS011;71289;51.552;6.210;2023-07-13T05:50:16;20.63;;;7.70;;
6141;SDS011;71289;51.552;6.210;2023-07-13T05:52:42;17.50;;;8.20;;
6141;SDS011;71289;51.552;6.210;2023-07-13T05:55:07;15.73;;;7.53;;
6141;SDS011;71289;51.552;6.210;2023-07-13T05:57:33;27.57;;;9.30;;
6141;SDS011;71289;51.552;6.210;2023-07-13T05:59:59;21.23;;;9.80;;
6141;SDS011;71289;51.552;6.210;2023-07-13T06:02:24;14.90;;;8.00;;
6141;SDS011;71289;51.552;6.210;2023-07-13T06:04:51;25.77;;;9.73;;
6141;SDS011;71289;51.552;6.210;2023-07-13T06:07:17;29.87;;;8.53;;
6141;SDS011;71289;51.552;6.210;2023-07-13T06:09:42;22.27;;;10.17;;
6141;SDS011;71289;51.552;6.210;2023-07-13T06:12:08;17.30;;;8.67;;
6141;SDS011;71289;51.552;6.210;2023-07-13T06:14:34;23.27;;;9.87;;
6141;SDS011;71289;51.552;6.210;2023-07-13T06:16:59;17.20;;;8.97;;
6141;SDS011;71289;51.552;6.210;2023-07-13T06:19:25;33.33;;;8.97;;
6141;SDS011;71289;51.552;6.210;2023-07-13T06:21:50;24.77;;;9.33;;
6141;SDS011;71289;51.552;6.210;2023-07-13T06:24:16;18.03;;;7.80;;
6141;SDS011;71289;51.552;6.210;2023-07-13T06:26:41;16.97;;;8.83;;
6141;SDS011;71289;51.552;6.210;2023-07-13T06:29:07;21.67;;;9.10;;
6141;SDS011;71289;51.552;6.210;2023-07-13T06:31:33;21.33;;;9.00;;
6141;SDS011;71289;51.552;6.210;2023-07-13T06:33:58;21.93;;;8.67;;
6141;SDS011;71289;51.552;6.210;2023-07-13T06:36:24;20.03;;;9.50;;
6141;SDS011;71289;51.552;6.210;2023-07-13T06:38:49;18.03;;;9.57;;
6141;SDS011;71289;51.552;6.210;2023-07-13T06:41:15;18.23;;;8.70;;
6141;SDS011;71289;51.552;6.210;2023-07-13T06:43:40;20.60;;;10.03;;
6141;SDS011;71289;51.552;6.210;2023-07-13T06:46:06;24.70;;;9.67;;
6141;SDS011;71289;51.552;6.210;2023-07-13T06:48:32;26.20;;;10.80;;
6141;SDS011;71289;51.552;6.210;2023-07-13T06:50:58;19.80;;;11.80;;
6141;SDS011;71289;51.552;6.210;2023-07-13T06:53:24;20.37;;;9.60;;
6141;SDS011;71289;51.552;6.210;2023-07-13T06:55:50;19.20;;;11.10;;
6141;SDS011;71289;51.552;6.210;2023-07-13T06:58:16;19.60;;;9.80;;
6141;SDS011;71289;51.552;6.210;2023-07-13T07:00:43;20.03;;;10.80;;
6141;SDS011;71289;51.552;6.210;2023-07-13T07:03:08;21.33;;;11.20;;
6141;SDS011;71289;51.552;6.210;2023-07-13T07:05:34;26.43;;;12.37;;
6141;SDS011;71289;51.552;6.210;2023-07-13T07:08:00;22.97;;;9.80;;
6141;SDS011;71289;51.552;6.210;2023-07-13T07:10:25;24.70;;;11.03;;
6141;SDS011;71289;51.552;6.210;2023-07-13T07:12:51;22.10;;;10.30;;
6141;SDS011;71289;51.552;6.210;2023-07-13T07:15:17;27.70;;;10.73;;
6141;SDS011;71289;51.552;6.210;2023-07-13T07:17:43;19.50;;;9.23;;
6141;SDS011;71289;51.552;6.210;2023-07-13T07:20:09;19.23;;;10.13;;
6141;SDS011;71289;51.552;6.210;2023-07-13T07:22:35;24.93;;;9.47;;
6141;SDS011;71289;51.552;6.210;2023-07-13T07:25:01;26.50;;;10.17;;
6141;SDS011;71289;51.552;6.210;2023-07-13T07:27:26;21.73;;;9.97;;
6141;SDS011;71289;51.552;6.210;2023-07-13T07:29:52;21.13;;;8.90;;
6141;SDS011;71289;51.552;6.210;2023-07-13T07:32:18;19.77;;;9.83;;
6141;SDS011;71289;51.552;6.210;2023-07-13T07:34:44;17.03;;;8.53;;
6141;SDS011;71289;51.552;6.210;2023-07-13T07:37:10;17.37;;;9.67;;
6141;SDS011;71289;51.552;6.210;2023-07-13T07:39:38;21.50;;;10.17;;
6141;SDS011;71289;51.552;6.210;2023-07-13T07:42:03;15.20;;;8.80;;
6141;SDS011;71289;51.552;6.210;2023-07-13T07:44:30;24.27;;;10.10;;
6141;SDS011;71289;51.552;6.210;2023-07-13T07:46:56;24.40;;;10.10;;
6141;SDS011;71289;51.552;6.210;2023-07-13T07:49:22;28.13;;;10.00;;
6141;SDS011;71289;51.552;6.210;2023-07-13T07:51:48;26.10;;;9.57;;
6141;SDS011;71289;51.552;6.210;2023-07-13T07:54:14;19.13;;;10.50;;
6141;SDS011;71289;51.552;6.210;2023-07-13T07:56:40;18.00;;;9.47;;
6141;SDS011;71289;51.552;6.210;2023-07-13T07:59:05;21.10;;;10.10;;
6141;SDS011;71289;51.552;6.210;2023-07-13T08:01:31;17.90;;;10.30;;
6141;SDS011;71289;51.552;6.210;2023-07-13T08:03:57;20.17;;;9.17;;
6141;SDS011;71289;51.552;6.210;2023-07-13T08:06:22;30.10;;;9.70;;
6141;SDS011;71289;51.552;6.210;2023-07-13T08:08:48;23.93;;;9.67;;
6141;SDS011;71289;51.552;6.210;2023-07-13T08:11:14;16.73;;;10.23;;
6141;SDS011;71289;51.552;6.210;2023-07-13T08:13:42;17.77;;;10.40;;
6141;SDS011;71289;51.552;6.210;2023-07-13T08:16:07;20.10;;;9.43;;
6141;SDS011;71289;51.552;6.210;2023-07-13T08:18:33;14.80;;;8.23;;
6141;SDS011;71289;51.552;6.210;2023-07-13T08:21:02;17.70;;;8.93;;
6141;SDS011;71289;51.552;6.210;2023-07-13T08:23:29;21.13;;;9.87;;
6141;SDS011;71289;51.552;6.210;2023-07-13T08:25:54;21.20;;;9.23;;
6141;SDS011;71289;51.552;6.210;2023-07-13T08:28:20;24.63;;;9.10;;
6141;SDS011;71289;51.552;6.210;2023-07-13T08:30:46;23.57;;;10.00;;
6141;SDS011;71289;51.552;6.210;2023-07-13T08:33:14;26.30;;;9.10;;
6141;SDS011;71289;51.552;6.210;2023-07-13T08:35:40;29.07;;;10.53;;
6141;SDS011;71289;51.552;6.210;2023-07-13T08:38:05;22.70;;;10.47;;
6141;SDS011;71289;51.552;6.210;2023-07-13T08:40:31;25.57;;;9.73;;
6141;SDS011;71289;51.552;6.210;2023-07-13T08:42:59;21.93;;;9.13;;
6141;SDS011;71289;51.552;6.210;2023-07-13T08:48:21;36.93;;;8.13;;
6141;SDS011;71289;51.552;6.210;2023-07-13T08:53:23;19.60;;;8.67;;
6141;SDS011;71289;51.552;6.210;2023-07-13T08:55:55;24.97;;;8.57;;
6141;SDS011;71289;51.552;6.210;2023-07-13T08:58:24;25.80;;;8.73;;
6141;SDS011;71289;51.552;6.210;2023-07-13T09:01:09;18.17;;;9.23;;
6141;SDS011;71289;51.552;6.210;2023-07-13T09:04:09;23.97;;;8.80;;
6141;SDS011;71289;51.552;6.210;2023-07-13T09:07:00;15.87;;;9.30;;
6141;SDS011;71289;51.552;6.210;2023-07-13T09:09:46;14.10;;;8.97;;
6141;SDS011;71289;51.552;6.210;2023-07-13T09:14:56;14.90;;;8.17;;
6141;SDS011;71289;51.552;6.210;2023-07-13T09:17:26;20.03;;;9.67;;
6141;SDS011;71289;51.552;6.210;2023-07-13T09:20:17;15.33;;;7.87;;
6141;SDS011;71289;51.552;6.210;2023-07-13T09:22:48;15.70;;;7.10;;
6141;SDS011;71289;51.552;6.210;2023-07-13T09:27:48;19.20;;;7.10;;
6141;SDS011;71289;51.552;6.210;2023-07-13T09:30:30;20.43;;;6.77;;
6141;SDS011;71289;51.552;6.210;2023-07-13T09:33:03;15.50;;;6.40;;
6141;SDS011;71289;51.552;6.210;2023-07-13T09:35:29;16.60;;;7.83;;
6141;SDS011;71289;51.552;6.210;2023-07-13T09:38:01;11.03;;;6.70;;
6141;SDS011;71289;51.552;6.210;2023-07-13T09:40:38;9.47;;;5.90;;
6141;SDS011;71289;51.552;6.210;2023-07-13T09:43:10;15.23;;;6.40;;
6141;SDS011;71289;51.552;6.210;2023-07-13T09:45:40;20.13;;;7.00;;
6141;SDS011;71289;51.552;6.210;2023-07-13T09:48:07;13.97;;;6.07;;
6141;SDS011;71289;51.552;6.210;2023-07-13T09:50:36;19.10;;;6.10;;
6141;SDS011;71289;51.552;6.210;2023-07-13T09:53:02;13.43;;;6.10;;
6141;SDS011;71289;51.552;6.210;2023-07-13T09:57:55;13.10;;;5.40;;
6141;SDS011;71289;51.552;6.210;2023-07-13T10:00:25;11.80;;;5.30;;
6141;SDS011;71289;51.552;6.210;2023-07-13T10:02:59;9.63;;;5.40;;
6141;SDS011;71289;51.552;6.210;2023-07-13T10:05:28;16.97;;;5.73;;
6141;SDS011;71289;51.552;6.210;2023-07-13T10:08:11;16.63;;;6.20;;
6141;SDS011;71289;51.552;6.210;2023-07-13T10:11:01;18.60;;;5.47;;
6141;SDS011;71289;51.552;6.210;2023-07-13T10:13:42;10.37;;;4.47;;
6141;SDS011;71289;51.552;6.210;2023-07-13T10:16:10;7.40;;;3.90;;
6141;SDS011;71289;51.552;6.210;2023-07-13T10:18:38;17.77;;;5.27;;
6141;SDS011;71289;51.552;6.210;2023-07-13T10:21:11;9.03;;;4.00;;
6141;SDS011;71289;51.552;6.210;2023-07-13T10:23:42;18.03;;;4.23;;
6141;SDS011;71289;51.552;6.210;2023-07-13T10:26:13;8.13;;;4.20;;
6141;SDS011;71289;51.552;6.210;2023-07-13T10:28:43;18.33;;;4.10;;
6141;SDS011;71289;51.552;6.210;2023-07-13T10:31:13;11.00;;;3.70;;
6141;SDS011;71289;51.552;6.210;2023-07-13T10:33:40;8.87;;;3.93;;
6141;SDS011;71289;51.552;6.210;2023-07-13T10:38:41;11.63;;;3.37;;
6141;SDS011;71289;51.552;6.210;2023-07-13T10:41:10;11.63;;;4.63;;
6141;SDS011;71289;51.552;6.210;2023-07-13T10:43:43;12.50;;;3.50;;
6141;SDS011;71289;51.552;6.210;2023-07-13T10:46:12;8.00;;;3.40;;
6141;SDS011;71289;51.552;6.210;2023-07-13T10:48:40;11.60;;;4.07;;
6141;SDS011;71289;51.552;6.210;2023-07-13T10:51:09;10.20;;;3.47;;
6141;SDS011;71289;51.552;6.210;2023-07-13T10:53:37;8.47;;;3.63;;
6141;SDS011;71289;51.552;6.210;2023-07-13T10:56:06;14.97;;;3.73;;
6141;SDS011;71289;51.552;6.210;2023-07-13T10:58:41;6.73;;;3.10;;
6141;SDS011;71289;51.552;6.210;2023-07-13T11:01:09;8.60;;;4.13;;
6141;SDS011;71289;51.552;6.210;2023-07-13T11:06:10;6.17;;;3.63;;
6141;SDS011;71289;51.552;6.210;2023-07-13T11:08:50;13.57;;;4.27;;
6141;SDS011;71289;51.552;6.210;2023-07-13T11:18:50;20.80;;;3.17;;
6141;SDS011;71289;51.552;6.210;2023-07-13T11:21:41;10.40;;;3.40;;
6141;SDS011;71289;51.552;6.210;2023-07-13T11:27:50;12.63;;;3.00;;
6141;SDS011;71289;51.552;6.210;2023-07-13T11:35:35;7.67;;;3.10;;
6141;SDS011;71289;51.552;6.210;2023-07-13T11:38:09;8.73;;;2.37;;
6141;SDS011;71289;51.552;6.210;2023-07-13T11:40:40;5.07;;;2.77;;
6141;SDS011;71289;51.552;6.210;2023-07-13T11:43:08;5.67;;;2.63;;
6141;SDS011;71289;51.552;6.210;2023-07-13T11:45:37;5.93;;;2.77;;
6141;SDS011;71289;51.552;6.210;2023-07-13T11:48:03;7.73;;;2.63;;
6141;SDS011;71289;51.552;6.210;2023-07-13T11:50:28;12.53;;;3.13;;
6141;SDS011;71289;51.552;6.210;2023-07-13T11:52:54;4.80;;;2.43;;
6141;SDS011;71289;51.552;6.210;2023-07-13T11:55:21;9.17;;;3.10;;
6141;SDS011;71289;51.552;6.210;2023-07-13T11:57:50;5.43;;;2.17;;
6141;SDS011;71289;51.552;6.210;2023-07-13T12:00:22;7.30;;;2.47;;
6141;SDS011;71289;51.552;6.210;2023-07-13T12:02:53;2.73;;;1.70;;
6141;SDS011;71289;51.552;6.210;2023-07-13T12:05:21;3.37;;;1.80;;
6141;SDS011;71289;51.552;6.210;2023-07-13T12:07:47;5.40;;;2.43;;
6141;SDS011;71289;51.552;6.210;2023-07-13T12:10:21;6.03;;;3.07;;
6141;SDS011;71289;51.552;6.210;2023-07-13T12:12:57;5.20;;;2.80;;
6141;SDS011;71289;51.552;6.210;2023-07-13T12:15:38;5.07;;;2.90;;
6141;SDS011;71289;51.552;6.210;2023-07-13T12:20:43;9.27;;;3.13;;
6141;SDS011;71289;51.552;6.210;2023-07-13T12:23:15;5.47;;;2.90;;
6141;SDS011;71289;51.552;6.210;2023-07-13T12:25:51;10.90;;;3.60;;
6141;SDS011;71289;51.552;6.210;2023-07-13T12:28:21;6.67;;;3.33;;
6141;SDS011;71289;51.552;6.210;2023-07-13T12:30:58;5.30;;;3.50;;
6141;SDS011;71289;51.552;6.210;2023-07-13T12:33:27;6.87;;;3.83;;
6141;SDS011;71289;51.552;6.210;2023-07-13T12:35:53;10.40;;;3.20;;
6141;SDS011;71289;51.552;6.210;2023-07-13T12:38:20;8.03;;;3.37;;
6141;SDS011;71289;51.552;6.210;2023-07-13T12:40:48;6.27;;;3.00;;
6141;SDS011;71289;51.552;6.210;2023-07-13T12:43:15;11.50;;;4.17;;
6141;SDS011;71289;51.552;6.210;2023-07-13T12:48:42;10.10;;;4.20;;
6141;SDS011;71289;51.552;6.210;2023-07-13T12:51:11;11.37;;;3.57;;
6141;SDS011;71289;51.552;6.210;2023-07-13T12:53:41;6.30;;;3.10;;
6141;SDS011;71289;51.552;6.210;2023-07-13T12:56:19;10.17;;;3.17;;
6141;SDS011;71289;51.552;6.210;2023-07-13T12:58:48;14.10;;;4.37;;
6141;SDS011;71289;51.552;6.210;2023-07-13T13:01:19;7.03;;;5.10;;
6141;SDS011;71289;51.552;6.210;2023-07-13T13:03:48;17.33;;;7.57;;
6141;SDS011;71289;51.552;6.210;2023-07-13T13:08:43;12.77;;;7.10;;
6141;SDS011;71289;51.552;6.210;2023-07-13T13:11:13;11.10;;;6.47;;
6141;SDS011;71289;51.552;6.210;2023-07-13T13:13:41;12.80;;;8.67;;
6141;SDS011;71289;51.552;6.210;2023-07-13T13:16:23;15.13;;;8.73;;
6141;SDS011;71289;51.552;6.210;2023-07-13T13:19:22;12.47;;;8.57;;
6141;SDS011;71289;51.552;6.210;2023-07-13T13:21:47;18.67;;;11.00;;
6141;SDS011;71289;51.552;6.210;2023-07-13T13:24:18;17.63;;;9.20;;
6141;SDS011;71289;51.552;6.210;2023-07-13T13:26:46;19.27;;;10.67;;
6141;SDS011;71289;51.552;6.210;2023-07-13T13:29:13;16.23;;;11.13;;
6141;SDS011;71289;51.552;6.210;2023-07-13T13:31:41;18.20;;;9.87;;
6141;SDS011;71289;51.552;6.210;2023-07-13T13:34:11;21.00;;;11.40;;
6141;SDS011;71289;51.552;6.210;2023-07-13T13:36:38;16.30;;;11.87;;
6141;SDS011;71289;51.552;6.210;2023-07-13T13:39:25;12.67;;;10.90;;
6141;SDS011;71289;51.552;6.210;2023-07-13T13:42:01;15.73;;;11.87;;
6141;SDS011;71289;51.552;6.210;2023-07-13T13:44:27;17.60;;;10.90;;
6141;SDS011;71289;51.552;6.210;2023-07-13T13:46:53;13.77;;;8.60;;
6141;SDS011;71289;51.552;6.210;2023-07-13T13:49:21;20.33;;;10.20;;
6141;SDS011;71289;51.552;6.210;2023-07-13T13:51:48;10.17;;;9.10;;
6141;SDS011;71289;51.552;6.210;2023-07-13T13:54:15;17.10;;;10.07;;
6141;SDS011;71289;51.552;6.210;2023-07-13T13:56:43;14.23;;;8.77;;
6141;SDS011;71289;51.552;6.210;2023-07-13T13:59:10;12.77;;;9.13;;
6141;SDS011;71289;51.552;6.210;2023-07-13T14:01:36;14.50;;;8.07;;
6141;SDS011;71289;51.552;6.210;2023-07-13T14:04:03;10.00;;;7.20;;
6141;SDS011;71289;51.552;6.210;2023-07-13T14:06:30;21.43;;;9.30;;
6141;SDS011;71289;51.552;6.210;2023-07-13T14:08:57;11.33;;;9.03;;
6141;SDS011;71289;51.552;6.210;2023-07-13T14:11:22;13.17;;;8.00;;
6141;SDS011;71289;51.552;6.210;2023-07-13T14:13:49;13.93;;;8.47;;
6141;SDS011;71289;51.552;6.210;2023-07-13T14:16:18;16.83;;;9.17;;
6141;SDS011;71289;51.552;6.210;2023-07-13T14:18:53;11.70;;;8.87;;
6141;SDS011;71289;51.552;6.210;2023-07-13T14:21:20;12.97;;;7.77;;
6141;SDS011;71289;51.552;6.210;2023-07-13T14:23:46;9.93;;;4.77;;
6141;SDS011;71289;51.552;6.210;2023-07-13T14:26:14;6.40;;;4.37;;
6141;SDS011;71289;51.552;6.210;2023-07-13T14:28:42;13.30;;;4.53;;
6141;SDS011;71289;51.552;6.210;2023-07-13T14:31:10;10.03;;;4.40;;
6141;SDS011;71289;51.552;6.210;2023-07-13T14:33:36;11.37;;;4.63;;
6141;SDS011;71289;51.552;6.210;2023-07-13T14:36:02;10.17;;;5.37;;
6141;SDS011;71289;51.552;6.210;2023-07-13T14:38:38;8.90;;;5.00;;
6141;SDS011;71289;51.552;6.210;2023-07-13T14:41:04;6.40;;;4.70;;
6141;SDS011;71289;51.552;6.210;2023-07-13T14:43:29;7.63;;;4.80;;
6141;SDS011;71289;51.552;6.210;2023-07-13T14:45:55;8.33;;;5.43;;
6141;SDS011;71289;51.552;6.210;2023-07-13T14:48:22;8.37;;;5.70;;
6141;SDS011;71289;51.552;6.210;2023-07-13T14:50:56;4.90;;;4.50;;
6141;SDS011;71289;51.552;6.210;2023-07-13T14:53:24;14.13;;;5.90;;
6141;SDS011;71289;51.552;6.210;2023-07-13T14:55:52;11.03;;;5.50;;
6141;SDS011;71289;51.552;6.210;2023-07-13T14:58:18;14.60;;;6.37;;
6141;SDS011;71289;51.552;6.210;2023-07-13T15:00:43;7.80;;;5.40;;
6141;SDS011;71289;51.552;6.210;2023-07-13T15:03:17;9.23;;;5.20;;
6141;SDS011;71289;51.552;6.210;2023-07-13T15:05:48;10.40;;;5.97;;
6141;SDS011;71289;51.552;6.210;2023-07-13T15:08:14;9.73;;;4.67;;
6141;SDS011;71289;51.552;6.210;2023-07-13T15:10:40;11.93;;;3.90;;
6141;SDS011;71289;51.552;6.210;2023-07-13T15:13:13;15.53;;;5.50;;
6141;SDS011;71289;51.552;6.210;2023-07-13T15:15:40;8.33;;;3.93;;
6141;SDS011;71289;51.552;6.210;2023-07-13T15:18:09;11.17;;;5.13;;
6141;SDS011;71289;51.552;6.210;2023-07-13T15:20:37;7.13;;;4.37;;
6141;SDS011;71289;51.552;6.210;2023-07-13T15:23:03;6.30;;;3.77;;
6141;SDS011;71289;51.552;6.210;2023-07-13T15:25:30;20.53;;;5.37;;
6141;SDS011;71289;51.552;6.210;2023-07-13T15:27:58;4.37;;;4.00;;
6141;SDS011;71289;51.552;6.210;2023-07-13T15:30:33;6.50;;;4.00;;
6141;SDS011;71289;51.552;6.210;2023-07-13T15:33:14;5.23;;;3.90;;
6141;SDS011;71289;51.552;6.210;2023-07-13T15:35:44;7.13;;;4.87;;
6141;SDS011;71289;51.552;6.210;2023-07-13T15:38:14;5.80;;;3.97;;
6141;SDS011;71289;51.552;6.210;2023-07-13T15:40:42;7.83;;;4.60;;